Time;durP1;ratioP1;P1;durP2;ratioP2;P2;SDS_P1;SDS_P2;PMS_P1;PMS_P2;Temp;Humidity;BMP_temperature;BMP_pressure;BME280_temperature;BME280_humidity;BME280_pressure;Samples;Min_cycle;Max_cycle;Signal;HPM_P1;HPM_P2
2022/05/05 00:00:55;;;;;;;9.10;8.07;;;17.80;64.50;;;;;;5112795;28;20046;-65
2022/05/05 00:03:21;;;;;;;9.77;7.93;;;17.80;64.50;;;;;;5113053;28;20468;-65
2022/05/05 00:05:47;;;;;;;11.90;7.80;;;17.80;64.40;;;;;;5131683;28;20031;-65
2022/05/05 00:08:13;;;;;;;12.10;7.78;;;17.80;64.50;;;;;;5131587;27;20043;-64
2022/05/05 00:16:08;;;;;;;12.27;8.10;;;17.70;64.80;;;;;;5132503;28;20029;-65
2022/05/05 00:18:34;;;;;;;10.65;7.68;;;17.70;64.80;;;;;;5130516;27;20442;-65
2022/05/05 00:21:00;;;;;;;11.80;7.45;;;17.70;64.90;;;;;;5132020;28;20030;-65
2022/05/05 00:23:26;;;;;;;9.25;7.63;;;17.70;64.90;;;;;;5130734;27;20055;-65
2022/05/05 00:25:51;;;;;;;12.30;8.27;;;17.70;65.00;;;;;;5131909;27;20023;-65
2022/05/05 00:28:18;;;;;;;10.93;8.07;;;17.70;65.00;;;;;;5131367;28;20024;-70
2022/05/05 00:30:43;;;;;;;9.55;7.90;;;17.60;65.00;;;;;;5131546;28;20114;-67
2022/05/05 00:33:09;;;;;;;9.20;7.70;;;17.60;65.20;;;;;;5113183;28;20085;-66
2022/05/05 00:35:35;;;;;;;9.63;7.97;;;17.50;65.40;;;;;;5112323;28;20087;-66
2022/05/05 00:38:00;;;;;;;10.88;8.48;;;17.50;65.60;;;;;;5131688;28;20031;-66
2022/05/05 00:40:26;;;;;;;10.05;8.15;;;17.40;65.90;;;;;;5130905;27;20016;-66
2022/05/05 00:42:52;;;;;;;11.20;8.52;;;17.40;66.10;;;;;;5135644;27;20043;-66
2022/05/05 00:45:18;;;;;;;13.88;9.15;;;17.40;66.30;;;;;;5135106;27;20015;-70
2022/05/05 00:47:43;;;;;;;13.48;8.52;;;17.30;66.60;;;;;;5135633;27;20019;-66
2022/05/05 00:50:11;;;;;;;13.80;8.27;;;17.40;66.60;;;;;;5116987;27;20019;-66
2022/05/05 00:52:37;;;;;;;10.43;8.60;;;17.40;66.70;;;;;;5116410;27;20023;-64
2022/05/05 00:55:03;;;;;;;11.73;8.85;;;17.40;66.70;;;;;;5134571;27;20038;-65
2022/05/05 00:57:29;;;;;;;20.08;9.40;;;17.40;66.70;;;;;;5116330;27;20015;-65
2022/05/05 00:59:56;;;;;;;12.23;10.40;;;17.40;66.80;;;;;;5135110;27;20309;-64
2022/05/05 01:02:22;;;;;;;13.70;9.68;;;17.40;67.10;;;;;;5115955;27;20062;-65
2022/05/05 01:04:48;;;;;;;14.50;10.30;;;17.30;67.40;;;;;;5115520;27;20047;-66
2022/05/05 01:07:15;;;;;;;15.95;11.95;;;17.30;67.70;;;;;;5116211;27;20076;-65
2022/05/05 01:09:41;;;;;;;14.50;12.05;;;17.30;67.80;;;;;;5134962;27;20094;-64
2022/05/05 01:12:29;;;;;;;13.73;12.32;;;17.30;68.20;;;;;;5134987;27;20094;-67
2022/05/05 01:15:05;;;;;;;15.85;13.75;;;17.20;68.40;;;;;;5134728;27;20019;-64
2022/05/05 01:17:30;;;;;;;18.35;15.13;;;17.20;68.50;;;;;;5116457;27;20023;-64
2022/05/05 01:19:56;;;;;;;16.27;14.23;;;17.20;68.60;;;;;;5116323;27;20030;-64
2022/05/05 01:22:25;;;;;;;17.17;15.13;;;17.20;68.50;;;;;;5115825;27;20034;-66
2022/05/05 01:30:19;;;;;;;18.75;15.85;;;17.20;69.10;;;;;;5134611;27;20331;-70
2022/05/05 01:32:45;;;;;;;17.95;16.05;;;17.20;68.70;;;;;;5134438;27;20031;-65
2022/05/05 01:35:11;;;;;;;18.95;15.38;;;17.20;69.00;;;;;;5115959;27;20041;-66
2022/05/05 01:37:36;;;;;;;17.33;14.82;;;17.10;69.00;;;;;;5115179;27;20642;-66
2022/05/05 01:40:03;;;;;;;17.50;14.98;;;17.20;68.80;;;;;;5116383;27;20528;-66
2022/05/05 01:42:28;;;;;;;21.48;16.48;;;17.20;68.70;;;;;;5133831;27;20042;-66
2022/05/05 01:44:54;;;;;;;20.42;16.42;;;17.20;68.70;;;;;;5134349;27;20563;-66
2022/05/05 01:47:19;;;;;;;18.15;15.50;;;17.20;68.70;;;;;;5133413;27;20237;-70
2022/05/05 01:49:46;;;;;;;17.02;14.82;;;17.10;68.80;;;;;;5134143;27;20023;-66
2022/05/05 01:52:12;;;;;;;20.92;14.43;;;17.10;68.80;;;;;;5133661;27;20020;-67
2022/05/05 01:54:38;;;;;;;18.92;14.48;;;17.10;68.80;;;;;;5132924;27;20015;-66
2022/05/05 01:57:05;;;;;;;18.88;14.60;;;17.10;68.80;;;;;;5133768;27;20134;-66
2022/05/05 01:59:30;;;;;;;17.80;14.68;;;17.10;68.70;;;;;;5133183;27;20034;-65
2022/05/05 02:01:56;;;;;;;18.67;14.80;;;17.10;68.60;;;;;;5133803;27;20023;-66
2022/05/05 02:04:22;;;;;;;16.90;14.55;;;17.10;68.60;;;;;;5132914;27;20123;-66
2022/05/05 02:06:47;;;;;;;16.98;14.68;;;17.10;68.70;;;;;;5133448;27;20051;-65
2022/05/05 02:09:13;;;;;;;16.15;14.55;;;17.10;68.70;;;;;;5133880;27;20051;-65
2022/05/05 02:11:41;;;;;;;15.25;13.63;;;17.10;68.80;;;;;;5114537;27;20639;-65
2022/05/05 02:14:07;;;;;;;17.27;14.15;;;17.00;69.10;;;;;;5133557;27;20130;-65
2022/05/05 02:16:33;;;;;;;19.55;12.40;;;16.90;69.40;;;;;;5132844;27;20064;-66
2022/05/05 02:18:58;;;;;;;14.18;12.23;;;16.80;69.50;;;;;;5133834;27;20055;-65
2022/05/05 02:21:24;;;;;;;13.93;12.57;;;16.80;69.50;;;;;;5133173;27;20032;-66
2022/05/05 02:23:50;;;;;;;15.27;12.07;;;16.80;69.50;;;;;;5115255;27;20065;-66
2022/05/05 02:26:15;;;;;;;15.48;12.93;;;16.80;69.50;;;;;;5114739;27;20065;-68
2022/05/05 02:28:41;;;;;;;13.45;12.05;;;16.80;69.60;;;;;;5132307;27;20023;-66
2022/05/05 02:31:07;;;;;;;18.80;13.82;;;16.80;69.60;;;;;;5114861;27;20508;-65
2022/05/05 02:33:32;;;;;;;15.32;13.07;;;16.80;69.70;;;;;;5132592;27;20027;-67
2022/05/05 02:38:44;;;;;;;15.98;13.40;;;16.70;69.90;;;;;;5132608;27;20077;-66
2022/05/05 02:41:10;;;;;;;15.98;13.15;;;16.70;70.00;;;;;;5133335;27;20109;-67
2022/05/05 02:43:35;;;;;;;15.23;13.68;;;16.70;70.10;;;;;;5132336;27;20064;-66
2022/05/05 02:46:01;;;;;;;14.13;12.65;;;16.70;70.20;;;;;;5132778;27;20015;-66
2022/05/05 02:48:27;;;;;;;14.32;12.77;;;16.70;70.20;;;;;;5132429;27;20134;-67
2022/05/05 02:50:53;;;;;;;14.38;12.80;;;16.60;70.30;;;;;;5114651;27;20059;-66
2022/05/05 02:56:02;;;;;;;13.70;11.93;;;16.50;70.80;;;;;;5132944;27;20076;-67
2022/05/05 02:58:29;;;;;;;13.93;12.25;;;16.50;70.90;;;;;;5132258;27;20027;-68
2022/05/05 03:00:55;;;;;;;15.75;12.65;;;16.50;71.10;;;;;;5132943;27;20029;-66
2022/05/05 03:03:39;;;;;;;13.65;12.02;;;16.50;71.10;;;;;;5132229;27;20023;-70
2022/05/05 03:06:05;;;;;;;14.55;12.18;;;16.50;71.40;;;;;;5132464;27;20023;-65
2022/05/05 03:08:31;;;;;;;18.70;12.77;;;16.50;71.20;;;;;;5131719;27;20425;-64
2022/05/05 03:10:57;;;;;;;15.10;12.77;;;16.50;71.30;;;;;;5132752;27;20106;-64
2022/05/05 03:13:22;;;;;;;14.13;12.68;;;16.50;71.20;;;;;;5131837;27;20035;-65
2022/05/05 03:15:48;;;;;;;14.93;13.43;;;16.50;71.20;;;;;;5132167;27;20019;-64
2022/05/05 03:18:13;;;;;;;16.20;14.27;;;16.50;71.10;;;;;;5132119;27;20156;-65
2022/05/05 03:20:39;;;;;;;15.52;13.98;;;16.50;71.20;;;;;;5131830;27;20023;-65
2022/05/05 03:23:05;;;;;;;20.73;13.68;;;16.50;71.30;;;;;;5132103;27;20072;-67
2022/05/05 03:25:31;;;;;;;17.58;15.13;;;16.40;71.30;;;;;;5131492;27;20050;-65
2022/05/05 03:27:56;;;;;;;20.88;16.52;;;16.40;71.30;;;;;;5131626;27;20086;-65
2022/05/05 03:30:22;;;;;;;17.92;15.85;;;16.40;71.50;;;;;;5113224;27;20106;-68
2022/05/05 03:32:48;;;;;;;18.83;16.42;;;16.40;71.60;;;;;;5132106;27;20026;-65
2022/05/05 03:35:14;;;;;;;17.90;15.80;;;16.40;71.60;;;;;;5130949;27;20027;-65
2022/05/05 03:37:39;;;;;;;21.38;16.55;;;16.40;71.70;;;;;;5130814;27;20043;-65
2022/05/05 03:40:06;;;;;;;18.92;16.70;;;16.40;71.80;;;;;;5132133;27;20498;-67
2022/05/05 03:42:32;;;;;;;18.75;16.50;;;16.40;71.90;;;;;;5112960;27;20034;-66
2022/05/05 03:44:57;;;;;;;16.73;14.85;;;16.40;72.00;;;;;;5131441;27;20321;-68
2022/05/05 03:47:23;;;;;;;18.52;14.43;;;16.40;72.00;;;;;;5130707;27;20023;-65
2022/05/05 03:49:50;;;;;;;18.95;13.82;;;16.40;71.90;;;;;;5131845;27;20058;-65
2022/05/05 03:52:15;;;;;;;15.43;13.15;;;16.40;71.90;;;;;;5113431;27;20422;-65
2022/05/05 03:54:41;;;;;;;16.00;13.95;;;16.30;71.90;;;;;;5131414;27;20487;-65
2022/05/05 03:57:08;;;;;;;15.30;13.18;;;16.30;71.90;;;;;;5130923;27;20026;-65
2022/05/05 03:59:34;;;;;;;18.38;13.57;;;16.20;71.90;;;;;;5113088;28;20024;-65
2022/05/05 04:02:00;;;;;;;18.75;12.93;;;16.30;71.90;;;;;;5130258;27;20402;-67
2022/05/05 04:04:26;;;;;;;15.88;13.30;;;16.30;72.00;;;;;;5129491;27;20475;-66
2022/05/05 04:06:51;;;;;;;14.40;12.10;;;16.20;72.00;;;;;;5130505;28;20232;-65
2022/05/05 04:09:17;;;;;;;16.95;13.05;;;16.20;72.10;;;;;;5130190;27;20415;-66
2022/05/05 04:11:43;;;;;;;16.92;12.48;;;16.20;72.10;;;;;;5130002;27;20252;-65
2022/05/05 04:14:08;;;;;;;17.38;12.75;;;16.20;72.10;;;;;;5129700;27;20026;-65
2022/05/05 04:16:34;;;;;;;19.98;11.48;;;16.20;72.10;;;;;;5113279;27;20027;-65
2022/05/05 04:19:03;;;;;;;17.83;12.95;;;16.20;72.00;;;;;;5133572;27;20019;-65
2022/05/05 04:21:30;;;;;;;15.30;12.10;;;16.20;71.90;;;;;;5133098;27;20156;-65
2022/05/05 04:23:56;;;;;;;19.48;12.20;;;16.20;71.90;;;;;;5133693;27;20050;-68
2022/05/05 04:26:23;;;;;;;15.35;12.25;;;16.20;71.90;;;;;;5133456;27;20064;-69
2022/05/05 04:28:49;;;;;;;15.55;11.75;;;16.20;72.10;;;;;;5115189;27;20019;-67
2022/05/05 04:31:17;;;;;;;17.42;12.50;;;16.10;72.00;;;;;;5133805;27;20033;-66
2022/05/05 04:33:43;;;;;;;15.90;12.35;;;16.10;72.00;;;;;;5133244;27;20055;-68
2022/05/05 04:36:10;;;;;;;17.52;12.43;;;16.10;72.10;;;;;;5133717;27;20102;-66
2022/05/05 04:38:35;;;;;;;18.00;12.73;;;16.10;72.10;;;;;;5132725;27;20019;-65
2022/05/05 04:41:02;;;;;;;16.58;11.93;;;16.10;72.20;;;;;;5134622;27;20029;-65
2022/05/05 04:43:27;;;;;;;15.15;12.18;;;16.10;72.30;;;;;;5114483;27;20043;-66
2022/05/05 04:45:53;;;;;;;17.98;12.40;;;16.10;72.30;;;;;;5133568;27;20019;-66
2022/05/05 04:48:20;;;;;;;16.05;12.68;;;16.20;72.80;;;;;;5134039;27;20050;-69
2022/05/05 04:50:46;;;;;;;17.33;12.25;;;16.30;72.00;;;;;;5133885;27;20015;-64
2022/05/05 04:53:12;;;;;;;16.75;12.25;;;16.40;71.90;;;;;;5133683;27;20042;-66
2022/05/05 04:55:37;;;;;;;24.95;13.73;;;16.40;71.50;;;;;;5133152;27;20102;-66
2022/05/05 04:58:03;;;;;;;19.52;13.82;;;16.50;71.40;;;;;;5115189;27;20503;-66
2022/05/05 05:00:29;;;;;;;18.23;13.70;;;16.50;71.00;;;;;;5133130;27;20437;-66
2022/05/05 05:02:56;;;;;;;19.23;13.82;;;16.50;71.00;;;;;;5135793;27;20019;-66
2022/05/05 05:05:22;;;;;;;17.05;14.18;;;16.50;71.00;;;;;;5135312;27;20023;-70
2022/05/05 05:07:47;;;;;;;21.35;14.25;;;16.50;71.00;;;;;;5116000;27;20449;-66
2022/05/05 05:10:13;;;;;;;17.27;13.95;;;16.50;70.90;;;;;;5136206;27;20023;-65
2022/05/05 05:12:39;;;;;;;17.02;14.10;;;16.60;70.70;;;;;;5135976;27;20031;-64
2022/05/05 05:15:06;;;;;;;18.25;13.35;;;16.60;70.60;;;;;;5135501;27;20031;-65
2022/05/05 05:17:32;;;;;;;17.83;13.20;;;16.60;70.50;;;;;;5134555;27;20015;-66
2022/05/05 05:19:58;;;;;;;17.75;12.77;;;16.60;70.50;;;;;;5116684;27;20456;-65
2022/05/05 05:22:23;;;;;;;15.93;13.05;;;16.70;70.40;;;;;;5133283;27;20336;-67
2022/05/05 05:24:49;;;;;;;15.65;12.27;;;16.70;70.10;;;;;;5134346;27;20023;-64
2022/05/05 05:27:15;;;;;;;14.38;12.10;;;16.70;70.00;;;;;;5133509;27;20027;-65
2022/05/05 05:29:40;;;;;;;15.57;11.85;;;16.80;69.80;;;;;;5133237;27;20050;-66
2022/05/05 05:32:06;;;;;;;19.17;11.07;;;16.90;70.10;;;;;;5134166;27;20021;-66
2022/05/05 05:34:32;;;;;;;16.40;10.48;;;16.90;69.20;;;;;;5115086;27;20038;-65
2022/05/05 05:36:58;;;;;;;13.07;9.70;;;17.00;69.00;;;;;;5115550;27;20079;-65
2022/05/05 05:39:24;;;;;;;13.63;9.70;;;17.10;68.80;;;;;;5134032;27;20117;-69
2022/05/05 05:41:50;;;;;;;10.70;8.80;;;17.20;69.00;;;;;;5134058;27;20472;-67
2022/05/05 05:44:15;;;;;;;21.70;11.40;;;17.30;67.90;;;;;;5113330;27;20080;-66
2022/05/05 05:46:41;;;;;;;19.50;11.35;;;17.40;67.50;;;;;;5131544;27;20271;-66
2022/05/05 05:49:07;;;;;;;23.92;11.55;;;17.40;67.10;;;;;;5113213;27;20027;-69
2022/05/05 05:51:33;;;;;;;14.02;9.10;;;17.50;66.80;;;;;;5132970;27;20395;-65
2022/05/05 05:53:59;;;;;;;16.35;9.00;;;17.50;66.10;;;;;;5134498;27;20034;-64
2022/05/05 05:56:24;;;;;;;13.90;6.55;;;17.50;66.30;;;;;;5132170;27;20027;-69
2022/05/05 05:58:50;;;;;;;10.20;5.28;;;17.60;66.60;;;;;;5113663;27;20055;-65
2022/05/05 06:01:16;;;;;;;5.78;4.32;;;17.60;65.70;;;;;;5113593;27;20379;-66
2022/05/05 06:03:53;;;;;;;5.35;4.45;;;17.60;66.10;;;;;;5130669;27;20023;-66
2022/05/05 06:06:20;;;;;;;13.80;6.60;;;17.70;65.40;;;;;;5114901;27;20130;-65
2022/05/05 06:08:46;;;;;;;8.18;5.47;;;17.80;65.00;;;;;;5132866;27;20056;-65
2022/05/05 06:11:13;;;;;;;11.00;4.85;;;18.00;64.60;;;;;;5133326;27;20484;-66
2022/05/05 06:13:39;;;;;;;7.25;5.13;;;18.10;64.10;;;;;;5132866;27;20023;-66
2022/05/05 06:16:06;;;;;;;5.63;4.65;;;18.20;63.60;;;;;;5115558;27;20468;-63
2022/05/05 06:18:33;;;;;;;7.53;4.80;;;18.30;63.20;;;;;;5133013;27;20019;-65
2022/05/05 06:20:58;;;;;;;8.10;4.60;;;18.40;62.80;;;;;;5115615;27;20258;-65
2022/05/05 06:23:24;;;;;;;10.43;4.28;;;18.50;62.30;;;;;;5132116;27;20099;-69
2022/05/05 06:25:50;;;;;;;8.80;4.85;;;18.70;62.10;;;;;;5132965;27;20492;-64
2022/05/05 06:28:16;;;;;;;12.20;6.78;;;18.70;61.60;;;;;;5133153;27;20039;-64
2022/05/05 06:30:41;;;;;;;11.10;6.22;;;18.80;61.30;;;;;;5132655;27;20159;-64
2022/05/05 06:33:26;;;;;;;5.15;4.40;;;19.00;61.20;;;;;;5113979;27;20034;-64
2022/05/05 06:35:52;;;;;;;6.47;4.15;;;19.20;59.90;;;;;;5132451;27;20031;-65
2022/05/05 06:38:17;;;;;;;7.60;4.35;;;19.20;60.00;;;;;;5133774;27;20054;-65
2022/05/05 06:40:44;;;;;;;6.40;3.97;;;19.30;59.60;;;;;;5132409;27;20122;-65
2022/05/05 06:43:10;;;;;;;10.85;4.07;;;19.30;59.60;;;;;;5132578;27;20164;-65
2022/05/05 06:45:35;;;;;;;7.15;4.90;;;19.40;59.50;;;;;;5132508;27;20467;-65
2022/05/05 06:48:01;;;;;;;8.52;4.47;;;19.40;59.20;;;;;;5132641;27;20467;-65
2022/05/05 06:50:28;;;;;;;7.57;4.07;;;19.50;59.20;;;;;;5134284;27;20026;-65
2022/05/05 06:52:54;;;;;;;9.60;3.20;;;19.70;58.90;;;;;;5132818;27;20020;-66
2022/05/05 06:55:20;;;;;;;8.30;4.70;;;19.90;58.70;;;;;;5114625;27;20025;-64
2022/05/05 06:57:47;;;;;;;5.05;3.33;;;21.40;58.70;;;;;;5113938;27;20497;-65
2022/05/05 07:00:13;;;;;;;3.63;2.75;;;24.40;53.90;;;;;;5133059;27;20072;-65
2022/05/05 07:02:39;;;;;;;19.10;4.03;;;27.50;47.80;;;;;;5131787;27;20026;-65
2022/05/05 07:05:26;;;;;;;8.43;3.88;;;30.30;42.30;;;;;;5132744;27;20019;-66
2022/05/05 07:07:52;;;;;;;9.27;2.95;;;32.60;37.90;;;;;;5131798;27;20019;-67
2022/05/05 07:13:02;;;;;;;4.22;2.40;;;36.40;31.50;;;;;;5132976;27;20026;-66
2022/05/05 07:15:28;;;;;;;4.10;2.10;;;38.10;29.60;;;;;;5132574;27;20106;-69
2022/05/05 07:17:53;;;;;;;6.00;2.53;;;39.20;28.10;;;;;;5132285;27;20429;-66
2022/05/05 07:20:19;;;;;;;4.72;2.40;;;40.30;27.50;;;;;;5114172;27;20031;-65
2022/05/05 07:22:46;;;;;;;3.65;2.30;;;41.40;26.60;;;;;;5132001;27;20094;-66
2022/05/05 07:25:12;;;;;;;3.50;2.45;;;42.30;25.90;;;;;;5132389;27;20015;-65
2022/05/05 07:27:39;;;;;;;3.17;2.10;;;43.20;25.30;;;;;;5131916;27;20028;-66
2022/05/05 07:30:06;;;;;;;2.97;2.30;;;44.00;25.20;;;;;;5132604;27;20102;-67
2022/05/05 07:32:31;;;;;;;4.18;2.67;;;44.60;24.00;;;;;;5132126;27;20031;-70
2022/05/05 07:34:57;;;;;;;2.83;2.30;;;44.90;23.70;;;;;;5131799;27;20412;-65
2022/05/05 07:37:23;;;;;;;2.40;2.20;;;45.20;23.40;;;;;;5113500;27;20041;-66
2022/05/05 07:39:48;;;;;;;3.45;2.30;;;45.70;23.30;;;;;;5113382;27;20038;-66
2022/05/05 07:42:14;;;;;;;2.83;2.30;;;46.20;22.90;;;;;;5096538;27;20027;-66
2022/05/05 07:44:40;;;;;;;4.95;2.88;;;46.70;22.80;;;;;;5113525;27;20035;-66
2022/05/05 07:47:05;;;;;;;3.60;2.80;;;47.30;22.60;;;;;;5132350;27;20098;-66
2022/05/05 07:49:31;;;;;;;4.78;2.78;;;47.70;22.20;;;;;;5132222;27;20015;-70
2022/05/05 07:51:57;;;;;;;4.20;2.15;;;47.60;21.60;;;;;;5131194;27;20072;-66
2022/05/05 07:54:35;;;;;;;3.45;2.72;;;46.80;21.90;;;;;;5113666;27;20119;-66
2022/05/05 07:57:05;;;;;;;3.90;2.10;;;46.70;22.00;;;;;;5131535;27;20034;-66
2022/05/05 07:59:31;;;;;;;4.00;2.00;;;46.60;21.80;;;;;;5131100;27;20437;-68
2022/05/05 08:01:58;;;;;;;3.88;1.70;;;46.50;21.80;;;;;;5130259;27;20027;-65
2022/05/05 08:04:24;;;;;;;4.25;1.70;;;45.70;21.90;;;;;;5113121;28;20031;-65
2022/05/05 08:06:50;;;;;;;3.35;1.60;;;44.40;22.20;;;;;;5112760;28;20103;-67
2022/05/05 08:09:16;;;;;;;4.97;2.17;;;43.30;22.70;;;;;;5131540;28;20106;-66
2022/05/05 08:11:42;;;;;;;10.00;2.47;;;43.10;23.00;;;;;;5112763;28;20391;-66
2022/05/05 08:14:08;;;;;;;6.18;4.22;;;43.40;23.00;;;;;;5131761;27;20031;-67
2022/05/05 08:16:34;;;;;;;8.77;3.30;;;44.00;22.80;;;;;;5112992;28;20023;-70
2022/05/05 08:19:01;;;;;;;3.72;2.35;;;45.00;22.60;;;;;;5113469;28;20075;-67
2022/05/05 08:21:27;;;;;;;8.07;2.00;;;46.30;22.10;;;;;;5131488;27;20023;-67
2022/05/05 08:29:21;;;;;;;15.05;2.72;;;48.50;21.40;;;;;;5132212;28;20042;-68
2022/05/05 08:31:48;;;;;;;4.35;2.25;;;48.50;21.00;;;;;;5130591;27;20019;-67
2022/05/05 08:34:13;;;;;;;4.20;2.50;;;49.10;20.90;;;;;;5131014;27;20023;-65
2022/05/05 08:36:39;;;;;;;5.57;2.88;;;50.30;20.70;;;;;;5112487;28;20332;-67
2022/05/05 08:39:06;;;;;;;3.83;1.60;;;50.90;20.30;;;;;;5131496;28;20039;-66
2022/05/05 08:41:33;;;;;;;1.88;1.40;;;49.50;19.90;;;;;;5113009;28;20037;-65
2022/05/05 08:43:59;;;;;;;2.28;1.30;;;47.40;20.60;;;;;;5130769;28;20031;-67
2022/05/05 08:46:27;;;;;;;6.05;1.45;;;45.10;21.00;;;;;;5113237;28;20183;-66
2022/05/05 08:49:04;;;;;;;1.73;1.30;;;42.40;21.90;;;;;;5113134;28;20035;-66
2022/05/05 08:51:38;;;;;;;2.05;1.02;;;40.90;22.50;;;;;;5131832;28;20076;-66
2022/05/05 08:54:06;;;;;;;2.58;1.10;;;41.00;22.40;;;;;;5131747;28;20111;-66
2022/05/05 08:56:34;;;;;;;5.45;2.60;;;39.70;22.90;;;;;;5131520;28;20080;-67
2022/05/05 08:59:02;;;;;;;3.20;2.30;;;39.10;23.60;;;;;;5130657;27;20020;-66
2022/05/05 09:01:36;;;;;;;6.40;2.72;;;39.00;24.00;;;;;;5130893;27;20015;-67
2022/05/05 09:04:04;;;;;;;5.57;2.95;;;39.50;24.00;;;;;;5135345;27;20019;-65
2022/05/05 09:06:51;;;;;;;5.68;3.13;;;39.40;24.20;;;;;;5116933;27;20026;-64
2022/05/05 09:09:23;;;;;;;2.25;1.20;;;37.70;24.70;;;;;;5099833;27;20076;-67
2022/05/05 09:12:18;;;;;;;2.03;1.30;;;36.00;24.70;;;;;;5116167;27;20084;-64
2022/05/05 09:14:53;;;;;;;2.38;1.30;;;34.70;25.50;;;;;;5134359;27;20054;-66
2022/05/05 09:17:23;;;;;;;5.03;1.50;;;33.70;26.10;;;;;;5115989;27;20055;-66
2022/05/05 09:19:54;;;;;;;3.65;1.45;;;32.90;26.60;;;;;;5134045;27;20126;-66
2022/05/05 09:22:24;;;;;;;7.50;2.20;;;32.10;27.30;;;;;;5115791;27;20064;-67
2022/05/05 09:24:52;;;;;;;1.73;1.10;;;31.60;27.70;;;;;;5133799;27;20110;-65
2022/05/05 09:27:29;;;;;;;6.75;2.17;;;30.90;28.10;;;;;;5115908;27;20027;-66
2022/05/05 09:30:05;;;;;;;1.67;1.13;;;30.40;28.70;;;;;;5133529;27;20027;-66
2022/05/05 09:32:36;;;;;;;4.18;1.52;;;29.70;29.30;;;;;;5134372;27;20068;-67
2022/05/05 09:35:05;;;;;;;2.65;1.00;;;29.00;29.70;;;;;;5134103;27;20033;-66
2022/05/05 09:37:31;;;;;;;8.98;1.55;;;28.50;30.00;;;;;;5134153;27;20045;-66
2022/05/05 09:39:58;;;;;;;3.00;1.33;;;28.00;31.20;;;;;;5133366;27;20098;-68
2022/05/05 09:42:44;;;;;;;3.08;1.30;;;27.60;31.40;;;;;;5133888;27;20023;-66
2022/05/05 09:45:17;;;;;;;3.42;1.80;;;27.40;31.00;;;;;;5134377;27;20068;-67
2022/05/05 09:47:45;;;;;;;2.88;1.90;;;27.30;31.00;;;;;;5131498;27;20443;-70
2022/05/05 09:50:12;;;;;;;1.55;0.80;;;27.20;31.00;;;;;;5132972;27;20046;-69
2022/05/05 09:58:15;;;;;;;3.33;1.67;;;26.70;31.80;;;;;;5132697;27;20119;-67
2022/05/05 10:01:08;;;;;;;4.07;2.40;;;26.70;32.10;;;;;;5133287;27;20019;-69
2022/05/05 10:04:00;;;;;;;3.00;1.45;;;26.90;32.10;;;;;;5115218;27;20113;-67
2022/05/05 10:06:30;;;;;;;6.80;3.17;;;26.90;32.10;;;;;;5114840;27;20057;-67
2022/05/05 10:09:02;;;;;;;12.20;7.78;;;26.90;32.20;;;;;;5132494;27;20068;-65
2022/05/05 10:11:29;;;;;;;11.55;4.78;;;26.90;32.30;;;;;;5133455;27;20031;-66
2022/05/05 10:13:57;;;;;;;2.88;2.00;;;26.90;32.30;;;;;;5131703;27;20028;-66
2022/05/05 10:16:23;;;;;;;23.35;16.05;;;26.90;32.20;;;;;;5114043;27;20060;-67
2022/05/05 10:18:50;;;;;;;57.15;41.28;;;26.70;32.30;;;;;;5113006;27;20019;-68
2022/05/05 10:21:54;;;;;;;6.18;3.65;;;26.60;32.30;;;;;;5131884;27;20476;-67
2022/05/05 10:24:40;;;;;;;5.55;3.20;;;26.50;32.40;;;;;;5114260;27;20067;-66
2022/05/05 10:27:06;;;;;;;5.57;4.13;;;26.50;32.30;;;;;;5132270;27;20030;-67
2022/05/05 10:29:41;;;;;;;6.22;2.72;;;26.70;32.30;;;;;;5132562;27;20034;-68
2022/05/05 10:32:18;;;;;;;2.65;1.60;;;27.00;32.30;;;;;;5132234;27;20043;-66
2022/05/05 10:34:46;;;;;;;7.80;4.93;;;27.30;31.90;;;;;;5113611;27;20023;-72
2022/05/05 10:37:13;;;;;;;3.67;2.08;;;27.40;31.40;;;;;;5132502;27;20103;-68
2022/05/05 10:39:49;;;;;;;1.92;1.20;;;27.50;31.50;;;;;;5132716;27;20030;-66
2022/05/05 10:42:40;;;;;;;3.83;1.65;;;27.40;31.70;;;;;;5113932;27;20441;-64
2022/05/05 10:45:16;;;;;;;2.88;1.90;;;27.30;32.10;;;;;;5132224;27;20405;-65
2022/05/05 10:48:01;;;;;;;7.60;2.67;;;27.10;32.30;;;;;;5132252;27;20105;-69
2022/05/05 10:50:43;;;;;;;9.38;5.82;;;27.10;32.60;;;;;;5113432;27;20073;-66
2022/05/05 10:53:31;;;;;;;2.53;1.40;;;27.20;32.50;;;;;;5131698;27;20027;-67
2022/05/05 10:56:26;;;;;;;2.38;0.85;;;27.30;32.40;;;;;;5130677;27;20066;-66
2022/05/05 10:59:08;;;;;;;1.45;1.17;;;27.10;32.30;;;;;;5112521;27;20038;-67
2022/05/05 11:01:46;;;;;;;4.43;1.43;;;27.10;32.40;;;;;;5131808;27;20035;-68
2022/05/05 11:04:15;;;;;;;1.95;1.15;;;27.20;32.70;;;;;;5131057;27;20023;-67
2022/05/05 11:06:42;;;;;;;4.03;1.38;;;27.20;32.40;;;;;;5131996;27;20076;-67
2022/05/05 11:09:09;;;;;;;6.07;2.70;;;27.30;32.30;;;;;;5131829;27;20281;-66
2022/05/05 11:11:41;;;;;;;5.72;3.47;;;27.40;32.90;;;;;;5132093;27;20051;-66
2022/05/05 11:23:10;;;;;;;5.63;3.13;;;26.50;35.70;;;;;;5131012;27;20035;-68
2022/05/05 11:25:41;;;;;;;12.00;4.28;;;26.50;35.90;;;;;;5111090;28;20019;-68
2022/05/05 11:28:10;;;;;;;4.63;2.67;;;26.40;35.80;;;;;;5130109;27;20022;-68
2022/05/05 11:30:37;;;;;;;6.97;3.10;;;26.40;35.80;;;;;;5130733;27;20046;-68
2022/05/05 11:33:06;;;;;;;3.00;2.38;;;26.50;35.70;;;;;;5111560;27;20207;-68
2022/05/05 11:35:33;;;;;;;4.22;2.67;;;26.50;35.50;;;;;;5130063;27;20467;-68
2022/05/05 11:37:59;;;;;;;7.35;2.72;;;26.40;35.50;;;;;;5129910;27;20023;-68
2022/05/05 11:40:25;;;;;;;3.58;2.55;;;26.30;35.50;;;;;;5112720;27;20114;-68
2022/05/05 11:45:37;;;;;;;5.32;2.88;;;26.20;35.80;;;;;;5131432;27;20115;-67
2022/05/05 11:48:17;;;;;;;9.30;3.10;;;26.20;36.00;;;;;;5130472;27;20326;-67
2022/05/05 11:50:45;;;;;;;10.23;5.53;;;26.20;36.50;;;;;;5129310;27;20143;-68
2022/05/05 11:53:18;;;;;;;5.13;2.97;;;26.10;36.90;;;;;;5130299;27;20023;-67
2022/05/05 11:55:45;;;;;;;9.93;4.28;;;26.00;36.80;;;;;;5112020;27;20031;-68
2022/05/05 12:04:01;;;;;;;4.90;2.65;;;26.20;36.50;;;;;;5131499;27;20042;-66
2022/05/05 12:06:28;;;;;;;3.63;2.33;;;26.20;36.60;;;;;;5130952;27;20460;-67
2022/05/05 12:08:56;;;;;;;5.15;2.38;;;26.20;36.00;;;;;;5129157;28;20031;-65
2022/05/05 12:11:21;;;;;;;7.53;2.05;;;26.20;36.50;;;;;;5130161;27;20019;-64
2022/05/05 12:13:50;;;;;;;2.83;1.75;;;26.20;35.60;;;;;;5130239;28;20483;-65
2022/05/05 12:16:18;;;;;;;4.75;1.38;;;26.20;35.40;;;;;;5130563;27;20067;-64
2022/05/05 12:18:53;;;;;;;4.43;2.17;;;26.20;35.40;;;;;;5129195;27;20388;-66
2022/05/05 12:21:23;;;;;;;3.67;1.77;;;26.10;36.10;;;;;;5130827;27;20035;-64
2022/05/05 12:24:15;;;;;;;9.27;2.17;;;25.80;37.10;;;;;;5130093;28;20030;-66
2022/05/05 12:26:41;;;;;;;5.07;2.38;;;25.60;37.30;;;;;;5107924;28;20027;-65
2022/05/05 12:29:18;;;;;;;2.53;1.67;;;25.40;37.60;;;;;;5129714;27;20376;-65
2022/05/05 12:31:58;;;;;;;6.82;1.65;;;25.20;38.30;;;;;;5111910;28;20034;-67
2022/05/05 12:34:28;;;;;;;4.68;1.63;;;25.10;38.80;;;;;;5112574;28;20060;-65
2022/05/05 12:37:06;;;;;;;5.47;2.05;;;25.00;38.90;;;;;;5112245;27;20019;-64
2022/05/05 12:39:32;;;;;;;5.07;1.77;;;25.00;38.90;;;;;;5134495;27;20138;-66
2022/05/05 12:42:00;;;;;;;3.63;1.70;;;25.00;39.00;;;;;;5098515;27;20031;-65
2022/05/05 12:44:35;;;;;;;5.18;2.00;;;25.00;39.00;;;;;;5134535;27;20035;-66
2022/05/05 12:47:03;;;;;;;6.93;2.33;;;24.90;39.10;;;;;;5133229;27;20034;-67
2022/05/05 12:49:40;;;;;;;9.52;2.42;;;24.90;39.10;;;;;;5115448;27;20019;-67
2022/05/05 13:00:23;;;;;;;2.92;1.65;;;25.20;38.70;;;;;;5134097;27;20090;-67
2022/05/05 13:02:52;;;;;;;5.90;2.38;;;25.20;38.60;;;;;;5114970;27;20118;-67
2022/05/05 13:05:19;;;;;;;6.70;2.67;;;25.10;38.90;;;;;;5115607;27;20027;-69
2022/05/05 13:10:29;;;;;;;3.90;2.40;;;25.00;38.00;;;;;;5132861;27;20379;-67
2022/05/05 13:12:55;;;;;;;4.13;1.60;;;25.10;37.30;;;;;;5130281;27;20027;-67
2022/05/05 13:15:20;;;;;;;3.00;1.85;;;25.00;36.70;;;;;;5130956;27;20099;-67
2022/05/05 13:17:47;;;;;;;3.50;1.75;;;25.00;37.00;;;;;;5132903;27;20546;-68
2022/05/05 13:20:13;;;;;;;4.32;1.80;;;24.90;36.70;;;;;;5133389;27;20057;-67
2022/05/05 13:22:39;;;;;;;7.35;1.92;;;25.00;36.40;;;;;;5133326;27;20046;-67
2022/05/05 13:25:05;;;;;;;4.63;2.50;;;25.00;35.90;;;;;;5131985;27;20282;-67
2022/05/05 13:27:32;;;;;;;3.22;2.10;;;25.10;36.00;;;;;;5131074;27;20023;-67
2022/05/05 13:29:57;;;;;;;3.55;2.03;;;25.20;36.10;;;;;;5114297;27;20019;-69
2022/05/05 13:32:24;;;;;;;3.50;2.10;;;25.20;35.70;;;;;;5112836;27;20023;-68
2022/05/05 13:34:52;;;;;;;5.70;2.20;;;25.40;36.40;;;;;;5111282;27;20068;-69
2022/05/05 13:37:20;;;;;;;5.15;1.85;;;25.60;36.10;;;;;;5113406;27;20088;-68
2022/05/05 13:39:46;;;;;;;4.00;2.10;;;25.70;35.80;;;;;;5112067;27;20088;-69
2022/05/05 13:42:12;;;;;;;4.03;2.17;;;25.80;35.80;;;;;;5113806;27;20027;-67